createdAt,value
2022-10-03T09:48:32.339Z,17.40
2022-10-03T09:51:18.275Z,17.90
2022-10-03T09:57:59.349Z,18.70
2022-10-03T10:04:53.819Z,18.90
2022-10-03T10:08:03.251Z,18.90
2022-10-03T10:11:07.512Z,18.60
2022-10-03T10:14:09.560Z,18.40
2022-10-03T10:32:23.968Z,18.30
2022-10-03T10:38:25.345Z,16.50
2022-10-03T10:41:51.131Z,16.40
2022-10-03T10:48:32.009Z,16.50
2022-10-03T10:51:41.483Z,16.70
2022-10-03T10:58:13.776Z,16.60
2022-10-03T11:05:04.061Z,16.50
2022-10-03T11:07:54.121Z,16.60
2022-10-03T11:10:56.895Z,16.50
2022-10-03T11:13:49.137Z,16.90
2022-10-03T11:20:10.318Z,17.10
2022-10-03T11:23:23.403Z,17.00
2022-10-03T11:30:34.684Z,17.10
2022-10-03T11:33:23.057Z,17.50
2022-10-03T11:36:56.416Z,17.60
2022-10-03T11:39:35.833Z,17.60
2022-10-03T11:42:48.216Z,18.30
2022-10-03T11:45:39.828Z,18.20
2022-10-03T11:49:11.386Z,18.60
2022-10-03T11:52:32.822Z,19.10
2022-10-03T12:01:37.934Z,18.70
2022-10-03T12:03:16.753Z,19.30
2022-10-03T12:07:24.161Z,19.90
2022-10-03T12:13:42.922Z,20.60
2022-10-03T12:20:31.130Z,20.30
2022-10-03T12:24:06.997Z,20.80
2022-10-03T12:33:23.741Z,19.80
2022-10-03T12:36:45.745Z,18.90
2022-10-03T12:40:12.444Z,18.20
2022-10-03T12:42:52.270Z,18.10
2022-10-03T12:46:06.862Z,18.00
2022-10-03T12:49:41.099Z,17.90
2022-10-03T12:52:37.730Z,17.70
2022-10-03T12:55:35.330Z,18.00
2022-10-03T12:58:56.392Z,18.30
2022-10-03T13:02:17.013Z,18.40
2022-10-03T13:05:12.677Z,18.90
2022-10-03T13:08:12.364Z,18.60
2022-10-03T13:14:01.773Z,18.00
2022-10-03T13:21:26.655Z,17.10
2022-10-03T13:25:06.652Z,17.30
2022-10-03T13:28:45.104Z,17.60
2022-10-03T13:42:55.118Z,16.60
2022-10-03T14:10:53.559Z,17.00
2022-10-03T14:16:38.688Z,17.40
2022-10-03T14:19:54.569Z,17.30
2022-10-03T14:26:00.362Z,16.70
2022-10-03T14:28:40.178Z,16.60
2022-10-03T14:31:20.883Z,16.50
2022-10-03T14:34:10.905Z,16.60
2022-10-03T14:36:52.259Z,16.60
2022-10-03T14:39:32.472Z,16.50
2022-10-03T14:42:36.672Z,16.50
2022-10-03T14:45:18.805Z,16.70
2022-10-03T14:47:53.087Z,16.90
2022-10-03T14:50:25.519Z,16.90
2022-10-03T14:53:04.733Z,17.10
2022-10-03T14:55:51.539Z,17.20
2022-10-03T14:58:32.646Z,17.20
2022-10-03T15:01:13.074Z,17.40
2022-10-03T15:03:57.213Z,17.30
2022-10-03T15:06:46.554Z,17.50
2022-10-03T16:32:45.729Z,14.30
2022-10-03T16:36:07.815Z,14.20
2022-10-03T19:55:09.236Z,8.30
2022-10-03T19:58:04.083Z,8.70
2022-10-03T20:00:39.115Z,8.50
2022-10-03T20:03:23.055Z,8.20
2022-10-03T20:06:18.672Z,8.30
2022-10-03T20:09:06.016Z,8.30
2022-10-03T20:11:57.236Z,8.30
2022-10-03T20:14:29.010Z,8.20
2022-10-03T20:17:03.003Z,8.20
2022-10-03T20:19:41.662Z,8.20
2022-10-03T20:22:12.590Z,8.10
2022-10-03T20:24:45.246Z,8.00
2022-10-03T20:27:44.532Z,7.90
2022-10-03T20:30:35.778Z,8.00
2022-10-03T20:33:03.891Z,8.00
2022-10-03T20:35:49.615Z,8.00
2022-10-03T20:38:38.111Z,7.90
2022-10-03T20:41:27.293Z,7.90
2022-10-03T20:44:15.815Z,7.80
2022-10-03T20:46:54.030Z,7.80
2022-10-03T20:49:34.272Z,7.80
2022-10-03T20:52:07.429Z,7.70
2022-10-03T20:54:49.189Z,7.70
2022-10-03T20:57:24.072Z,7.70
2022-10-03T21:00:21.107Z,7.60
2022-10-03T21:02:57.002Z,7.70
2022-10-03T21:05:48.621Z,7.60
2022-10-03T21:08:20.785Z,7.60
2022-10-03T21:10:54.680Z,7.60
2022-10-03T21:13:33.676Z,7.50
2022-10-03T21:16:03.143Z,7.50
2022-10-03T21:18:37.042Z,7.50
2022-10-03T21:21:19.498Z,7.40
2022-10-03T21:23:52.535Z,7.50
2022-10-03T21:26:29.949Z,7.30
2022-10-03T21:29:17.104Z,7.40
2022-10-03T21:31:59.290Z,7.40
2022-10-03T21:34:33.877Z,7.10
2022-10-03T21:37:14.266Z,7.30
2022-10-03T21:40:21.858Z,7.30
2022-10-03T21:43:31.641Z,7.30
2022-10-03T21:46:07.247Z,7.20
2022-10-03T21:49:25.501Z,7.20
2022-10-03T21:52:26.951Z,7.20
2022-10-03T21:55:04.722Z,7.10
2022-10-03T21:58:02.516Z,7.10
2022-10-03T22:00:48.308Z,7.10
2022-10-03T22:03:29.144Z,7.10
2022-10-03T22:06:21.971Z,7.10
2022-10-03T22:13:34.442Z,7.10
2022-10-03T22:16:10.884Z,7.30
2022-10-03T22:19:13.139Z,7.10
2022-10-03T22:22:00.264Z,7.20
2022-10-03T22:24:44.798Z,7.10
2022-10-03T22:27:31.005Z,7.10
2022-10-03T22:30:10.307Z,7.10
2022-10-03T22:33:04.284Z,7.20
2022-10-03T22:35:37.093Z,7.10
2022-10-03T22:38:04.282Z,7.10
2022-10-03T22:40:32.532Z,6.90
2022-10-03T22:43:03.376Z,7.30
2022-10-03T22:45:33.709Z,7.30
2022-10-03T22:48:05.471Z,7.40
2022-10-03T22:50:35.023Z,7.40
2022-10-03T22:53:03.464Z,7.30
2022-10-03T22:55:31.509Z,7.20
2022-10-03T22:58:01.128Z,7.10
2022-10-03T23:00:33.183Z,7.00
2022-10-03T23:03:08.315Z,7.00
2022-10-03T23:09:28.223Z,6.90
2022-10-03T23:11:57.456Z,6.80
2022-10-03T23:14:28.924Z,6.70
2022-10-03T23:17:20.075Z,6.60
2022-10-03T23:20:03.880Z,6.70
2022-10-03T23:22:34.812Z,6.60
2022-10-03T23:25:55.702Z,6.50
2022-10-03T23:28:36.378Z,6.50
2022-10-03T23:31:17.253Z,6.60
2022-10-03T23:33:43.962Z,6.60
2022-10-03T23:36:19.386Z,6.50
2022-10-03T23:38:46.005Z,6.60
2022-10-03T23:41:41.964Z,6.60
2022-10-03T23:44:31.728Z,6.60
2022-10-03T23:47:01.214Z,6.60
2022-10-03T23:50:23.177Z,6.60
2022-10-03T23:52:56.517Z,6.60
2022-10-03T23:55:28.457Z,6.50
2022-10-03T23:57:55.628Z,6.50
